Time;durP1;ratioP1;P1;durP2;ratioP2;P2;SDS_P1;SDS_P2;PMS_P1;PMS_P2;Temp;Humidity;BMP_temperature;BMP_pressure;BME280_temperature;BME280_humidity;BME280_pressure;Samples;Min_cycle;Max_cycle;Signal;HPM_P1;HPM_P2
2024/04/05 06:47:15;;;;;;;3.20;0.90;;;;;;;12.75;95.81;99145.58;265174;1306;544763;-85
2024/04/05 06:53:21;;;;;;;4.20;1.00;;;;;;;12.86;95.67;99154.66;271161;1281;23056;-85
2024/04/05 06:59:24;;;;;;;3.00;1.00;;;;;;;12.98;95.33;99157.38;266811;1278;6443863;-84
2024/04/05 07:06:02;;;;;;;3.30;0.80;;;;;;;13.09;95.00;99160.50;272107;1283;22852;-84
2024/04/05 07:19:40;;;;;;;5.70;1.10;;;;;;;13.37;93.95;99168.13;271876;1278;22435;-85
2024/04/05 07:26:24;;;;;;;3.20;1.30;;;;;;;13.54;93.70;99169.20;272049;1278;23023;-85
2024/04/05 07:32:51;;;;;;;4.10;1.10;;;;;;;13.75;93.08;99168.20;271497;1280;23248;-86
2024/04/05 07:39:23;;;;;;;3.10;1.20;;;;;;;14.24;93.52;99171.69;271934;1272;23026;-85
2024/04/05 07:46:05;;;;;;;5.80;1.40;;;;;;;14.89;92.24;99171.70;271323;1280;22269;-84
2024/04/05 07:52:32;;;;;;;3.30;1.30;;;;;;;15.26;89.84;99172.05;271062;1278;22368;-85
2024/04/05 07:58:33;;;;;;;3.80;1.50;;;;;;;15.38;87.15;99178.55;270948;1278;22544;-86
2024/04/05 08:04:34;;;;;;;5.00;1.10;;;;;;;15.12;85.10;99184.63;271883;1278;23328;-85
2024/04/05 08:11:01;;;;;;;5.90;1.80;;;;;;;14.92;85.92;99193.45;271836;1279;23194;-85
2024/04/05 08:17:04;;;;;;;7.80;2.50;;;;;;;14.89;85.64;99192.91;272334;1279;22432;-84
2024/04/05 08:23:18;;;;;;;3.90;1.30;;;;;;;15.12;86.09;99189.20;272113;1281;22429;-86
2024/04/05 08:29:27;;;;;;;4.40;1.50;;;;;;;15.66;84.93;99182.23;271340;1278;22954;-85
2024/04/05 08:35:34;;;;;;;3.30;1.40;;;;;;;16.05;83.10;99187.02;272348;1279;22414;-85
2024/04/05 08:41:36;;;;;;;4.30;1.40;;;;;;;16.29;80.90;99189.98;271945;1279;22524;-86
2024/04/05 08:47:57;;;;;;;5.10;0.80;;;;;;;16.43;79.73;99191.45;272183;1286;22254;-84
2024/04/05 08:54:21;;;;;;;5.50;0.80;;;;;;;16.62;78.85;99192.08;271954;1275;22676;-85
2024/04/05 09:00:23;;;;;;;3.50;0.90;;;;;;;16.97;77.72;99194.29;271765;1277;22271;-85
2024/04/05 09:07:09;;;;;;;4.10;0.80;;;;;;;17.26;76.00;99196.09;272347;1282;22291;-85
2024/04/05 09:13:12;;;;;;;1.80;0.70;;;;;;;17.87;75.21;99192.02;270890;1275;22585;-85
2024/04/05 09:19:22;;;;;;;2.20;0.70;;;;;;;18.42;72.49;99194.16;270800;1278;23136;-85
2024/04/05 09:26:15;;;;;;;2.30;0.60;;;;;;;18.91;71.47;99197.39;272608;1275;22283;-85
2024/04/05 09:32:21;;;;;;;4.30;0.90;;;;;;;19.14;70.01;99200.67;272241;1276;22846;-85
2024/04/05 09:38:42;;;;;;;1.70;0.50;;;;;;;19.40;69.93;99199.18;270825;1275;22555;-84
2024/04/05 09:45:14;;;;;;;5.30;1.10;;;;;;;20.00;66.08;99186.73;271512;1277;22636;-85
2024/04/05 09:51:19;;;;;;;2.60;0.70;;;;;;;20.82;65.14;99195.86;271936;1275;22465;-84
2024/04/05 09:58:12;;;;;;;4.90;0.90;;;;;;;21.31;63.50;99199.13;273230;1272;22475;-83
2024/04/05 10:04:14;;;;;;;2.40;0.90;;;;;;;21.52;61.76;99196.12;272928;1272;22488;-83
2024/04/05 10:10:38;;;;;;;2.70;0.90;;;;;;;21.14;59.71;99196.66;271717;1272;22559;-84
2024/04/05 10:16:41;;;;;;;3.00;1.00;;;;;;;20.22;61.00;99184.38;272975;1272;22525;-85
2024/04/05 10:22:43;;;;;;;1.60;0.50;;;;;;;20.52;61.30;99179.75;272992;1272;22508;-87
2024/04/05 10:29:06;;;;;;;2.60;0.80;;;;;;;20.97;59.44;99184.13;272035;1272;22335;-84
2024/04/05 10:35:09;;;;;;;2.10;0.60;;;;;;;21.28;58.74;99178.70;271823;1271;23407;-85
2024/04/05 10:41:14;;;;;;;3.30;0.80;;;;;;;22.12;56.99;99178.48;272830;1271;23245;-85
2024/04/05 10:47:16;;;;;;;2.80;0.70;;;;;;;22.85;54.65;99169.75;273036;1273;22458;-84
2024/04/05 10:53:58;;;;;;;3.10;0.60;;;;;;;22.75;52.34;99169.95;272873;1272;22486;-84
2024/04/05 11:00:15;;;;;;;2.60;0.60;;;;;;;23.31;52.78;99169.98;272753;1271;22424;-86
2024/04/05 11:06:38;;;;;;;2.90;0.90;;;;;;;23.61;51.30;99173.21;271521;1271;23092;-85
2024/04/05 11:12:39;;;;;;;4.10;1.00;;;;;;;24.36;50.04;99173.64;272555;1271;23173;-85
2024/04/05 11:18:45;;;;;;;2.40;0.70;;;;;;;24.40;48.29;99182.27;272403;1271;23130;-82
2024/04/05 11:24:48;;;;;;;2.30;1.10;;;;;;;24.27;47.01;99184.03;272322;1272;23701;-85
2024/04/05 11:30:53;;;;;;;2.20;0.70;;;;;;;24.38;45.84;99182.67;272159;1271;22255;-85
2024/04/05 11:36:55;;;;;;;2.70;1.00;;;;;;;23.93;44.70;99184.58;272550;1271;22459;-83
2024/04/05 11:42:55;;;;;;;1.20;0.70;;;;;;;23.48;45.69;99182.61;272733;1270;22380;-84
2024/04/05 11:48:56;;;;;;;3.10;0.80;;;;;;;23.58;45.84;99179.96;271872;1270;22414;-83
2024/04/05 11:54:58;;;;;;;1.80;0.60;;;;;;;23.05;45.10;99182.16;272476;1271;22578;-83
2024/04/05 12:01:00;;;;;;;1.80;0.70;;;;;;;22.60;45.97;99180.45;272777;1271;22413;-84
2024/04/05 12:07:01;;;;;;;3.90;0.70;;;;;;;22.38;46.28;99180.05;272797;1270;23094;-83
2024/04/05 12:13:02;;;;;;;2.30;0.80;;;;;;;22.38;46.25;99176.52;272449;1265;22402;-83
2024/04/05 12:19:03;;;;;;;1.60;0.50;;;;;;;22.16;45.51;99180.06;271077;1271;23807;-83
2024/04/05 12:25:05;;;;;;;4.20;0.70;;;;;;;22.02;45.69;99181.79;270959;1270;22341;-85
2024/04/05 12:31:07;;;;;;;2.50;0.80;;;;;;;22.03;45.88;99176.34;270691;1259;22970;-84
2024/04/05 12:37:09;;;;;;;3.40;1.20;;;;;;;21.93;45.12;99173.65;270752;1271;22551;-84
2024/04/05 12:43:10;;;;;;;3.90;1.10;;;;;;;21.57;43.98;99178.48;270808;1266;23446;-84
2024/04/05 12:49:11;;;;;;;4.40;0.50;;;;;;;21.07;44.36;99177.27;271312;1271;23246;-84
2024/04/05 12:55:14;;;;;;;2.70;0.70;;;;;;;21.12;44.96;99180.61;271149;1271;23642;-84
2024/04/05 13:01:15;;;;;;;6.80;0.90;;;;;;;20.73;43.86;99178.55;270941;1271;25355;-83
2024/04/05 13:07:16;;;;;;;2.50;0.80;;;;;;;20.00;45.14;99177.44;270713;1264;23359;-85
2024/04/05 13:13:17;;;;;;;4.10;1.00;;;;;;;19.97;46.58;99172.91;271076;1271;22547;-85
2024/04/05 13:19:18;;;;;;;2.70;0.60;;;;;;;19.89;45.79;99165.57;269815;1255;22577;-83
2024/04/05 13:25:32;;;;;;;3.30;0.70;;;;;;;19.82;46.36;99169.08;271141;1271;22457;-85
2024/04/05 13:31:40;;;;;;;3.30;0.60;;;;;;;19.82;46.52;99170.02;272021;1270;22271;-84
2024/04/05 13:38:04;;;;;;;1.80;0.50;;;;;;;19.86;47.14;99158.42;272387;1271;22539;-83
2024/04/05 13:44:05;;;;;;;2.40;0.70;;;;;;;20.04;47.66;99154.73;271443;1270;22388;-83
2024/04/05 13:50:06;;;;;;;2.90;0.70;;;;;;;20.08;48.05;99149.30;272414;1271;22444;-83
2024/04/05 13:56:09;;;;;;;3.90;0.80;;;;;;;20.03;47.64;99155.15;272376;1271;23088;-83
2024/04/05 14:02:11;;;;;;;2.30;0.80;;;;;;;19.87;48.04;99156.41;272287;1271;22467;-84
2024/04/05 14:08:12;;;;;;;3.10;0.80;;;;;;;19.65;47.83;99153.04;271666;1271;23243;-84
2024/04/05 14:14:15;;;;;;;3.00;1.00;;;;;;;19.52;48.00;99149.61;272453;1271;23404;-84
2024/04/05 14:20:16;;;;;;;5.20;1.30;;;;;;;19.68;48.04;99139.55;272336;1271;23128;-84
2024/04/05 14:26:17;;;;;;;3.60;1.20;;;;;;;19.84;48.64;99126.96;272422;1270;22422;-83
2024/04/05 14:32:21;;;;;;;2.70;1.00;;;;;;;19.79;48.63;99118.52;271964;1271;22470;-84
2024/04/05 14:38:23;;;;;;;5.50;1.90;;;;;;;19.72;48.07;99102.32;272160;1265;23695;-84
2024/04/05 14:44:24;;;;;;;4.30;1.20;;;;;;;19.55;48.25;99094.48;272293;1271;22417;-83
2024/04/05 14:50:26;;;;;;;2.90;1.10;;;;;;;19.48;49.52;99090.69;272393;1271;22456;-82
2024/04/05 14:56:27;;;;;;;3.80;0.80;;;;;;;19.49;49.49;99100.57;272442;1268;22563;-83
2024/04/05 15:02:28;;;;;;;3.70;1.00;;;;;;;19.43;50.09;99105.80;272595;1270;22511;-83
2024/04/05 15:08:32;;;;;;;4.30;1.20;;;;;;;19.48;49.93;99096.93;273362;1266;22411;-83
2024/04/05 15:14:33;;;;;;;3.60;1.00;;;;;;;19.43;50.05;99093.95;273218;1266;24293;-83
2024/04/05 15:20:34;;;;;;;3.30;1.20;;;;;;;19.32;50.60;99100.48;273372;1266;22486;-84
2024/04/05 15:26:36;;;;;;;5.50;1.40;;;;;;;19.19;50.10;99102.17;272765;1266;22560;-83
2024/04/05 15:32:37;;;;;;;5.40;1.10;;;;;;;19.04;50.73;99103.37;273592;1266;23315;-84
2024/04/05 15:38:45;;;;;;;4.10;1.30;;;;;;;18.88;51.54;99104.98;273447;1266;22807;-83
2024/04/05 15:45:00;;;;;;;6.30;1.50;;;;;;;18.62;52.24;99102.57;273573;1267;22273;-83
2024/04/05 15:51:13;;;;;;;5.30;1.30;;;;;;;18.46;52.20;99103.58;273593;1266;22301;-84
2024/04/05 15:57:42;;;;;;;5.60;1.40;;;;;;;18.26;52.39;99101.70;272296;1269;22646;-83
2024/04/05 16:04:03;;;;;;;4.60;1.40;;;;;;;18.14;52.73;99091.95;272154;1267;22640;-82
2024/04/05 16:10:07;;;;;;;3.80;1.40;;;;;;;18.01;52.62;99090.52;271545;1270;23739;-83
2024/04/05 16:16:40;;;;;;;3.70;1.50;;;;;;;17.90;53.25;99089.92;270939;1270;22586;-84
2024/04/05 16:22:44;;;;;;;4.00;1.20;;;;;;;17.76;53.73;99088.33;271976;1269;22839;-84
2024/04/05 16:29:07;;;;;;;3.30;1.20;;;;;;;17.51;54.50;99083.64;272573;1267;22536;-84
2024/04/05 16:35:09;;;;;;;4.60;1.20;;;;;;;17.30;54.91;99081.26;273970;1266;22452;-86
2024/04/05 16:41:11;;;;;;;6.40;1.50;;;;;;;17.05;55.22;99089.42;271945;1266;22536;-85
2024/04/05 16:47:12;;;;;;;10.10;1.90;;;;;;;16.82;55.32;99089.72;270953;1266;22570;-86
2024/04/05 16:53:14;;;;;;;5.30;1.50;;;;;;;16.58;56.38;99093.25;272158;1266;22561;-84
2024/04/05 16:59:41;;;;;;;5.50;1.50;;;;;;;16.37;56.39;99083.99;271908;1266;22684;-84
2024/04/05 17:06:05;;;;;;;6.90;1.90;;;;;;;16.18;57.13;99070.61;265873;1267;10002608;-83
2024/04/05 17:12:30;;;;;;;5.60;2.10;;;;;;;15.96;57.67;99062.54;272787;1266;22526;-84
2024/04/05 17:18:33;;;;;;;5.00;2.20;;;;;;;15.72;59.04;99064.57;271755;1258;23910;-84
2024/04/05 17:24:37;;;;;;;6.40;2.60;;;;;;;15.48;59.81;99073.35;272375;1266;23517;-82
2024/04/05 17:30:56;;;;;;;13.90;3.90;;;;;;;15.15;60.45;99075.75;272618;1267;25070;-84
2024/04/05 17:37:40;;;;;;;13.50;4.70;;;;;;;14.82;61.37;99080.80;273530;1267;22634;-84
2024/04/05 17:43:47;;;;;;;9.90;4.10;;;;;;;14.49;62.40;99092.27;273999;1259;22255;-84
2024/04/05 17:49:59;;;;;;;13.40;4.30;;;;;;;14.18;63.39;99094.99;273296;1266;22561;-84
2024/04/05 17:56:05;;;;;;;18.80;6.60;;;;;;;13.91;64.32;99097.21;273591;1266;23251;-84
2024/04/05 18:02:27;;;;;;;24.20;11.00;;;;;;;13.70;65.05;99089.75;273533;1266;22429;-83
2024/04/05 18:08:50;;;;;;;21.70;10.30;;;;;;;13.46;65.46;99089.11;273601;1268;22403;-83
2024/04/05 18:15:15;;;;;;;24.30;9.70;;;;;;;13.18;66.53;99085.69;273574;1264;22560;-83
2024/04/05 18:21:16;;;;;;;23.60;10.40;;;;;;;12.86;67.38;99083.54;271975;1266;22563;-83
2024/04/05 18:27:20;;;;;;;24.80;11.10;;;;;;;12.63;68.15;99079.77;272029;1267;22238;-83
2024/04/05 18:33:22;;;;;;;19.40;7.60;;;;;;;12.47;69.01;99087.13;273116;1267;22567;-83
2024/04/05 18:40:05;;;;;;;13.90;7.10;;;;;;;12.32;70.44;99092.08;273018;1268;22272;-84
2024/04/05 18:46:14;;;;;;;14.50;6.90;;;;;;;12.18;71.87;99091.14;273809;1267;23490;-84
2024/04/05 18:52:28;;;;;;;19.60;7.90;;;;;;;12.02;71.97;99083.89;274129;1266;22620;-84
2024/04/05 18:58:33;;;;;;;19.10;9.20;;;;;;;11.90;72.45;99089.61;266828;1265;6581427;-83
2024/04/05 19:05:35;;;;;;;20.40;9.70;;;;;;;11.68;73.09;99083.79;272152;1267;22418;-84
2024/04/05 19:12:18;;;;;;;24.80;12.40;;;;;;;11.49;74.57;99080.16;273118;1266;23264;-83
2024/04/05 19:18:25;;;;;;;26.00;11.90;;;;;;;11.29;74.91;99076.21;272644;1266;22347;-84
2024/04/05 19:24:27;;;;;;;26.90;11.80;;;;;;;11.15;75.57;99062.23;273811;1267;22477;-84
2024/04/05 19:30:28;;;;;;;20.10;9.80;;;;;;;11.06;76.61;99045.23;272337;1267;22634;-84
2024/04/05 19:36:31;;;;;;;19.40;9.80;;;;;;;11.02;78.05;99036.35;272705;1267;22565;-84
2024/04/05 19:42:45;;;;;;;19.70;9.50;;;;;;;10.98;79.32;99047.42;273455;1268;25313;-84
2024/04/05 19:48:48;;;;;;;21.20;10.50;;;;;;;10.95;79.41;99045.44;271532;1267;22277;-84
2024/04/05 19:54:58;;;;;;;21.20;10.60;;;;;;;10.96;79.58;99044.28;273851;1267;22373;-83
2024/04/05 20:01:42;;;;;;;19.70;10.20;;;;;;;10.91;80.36;99055.34;273354;1267;22399;-83
2024/04/05 20:07:44;;;;;;;22.00;11.30;;;;;;;10.92;81.75;99073.89;273265;1266;22539;-84
2024/04/05 20:13:47;;;;;;;21.60;11.60;;;;;;;10.95;82.14;99062.03;272745;1266;22458;-84
2024/04/05 20:19:49;;;;;;;18.20;9.60;;;;;;;10.96;82.40;99053.27;271805;1252;22675;-84
2024/04/05 20:25:54;;;;;;;27.80;11.90;;;;;;;10.95;83.17;99047.55;272231;1266;23203;-84
2024/04/05 20:38:14;;;;;;;17.70;10.70;;;;;;;10.74;83.83;99017.90;273591;1267;22356;-84
2024/04/05 20:44:19;;;;;;;19.60;11.50;;;;;;;10.63;84.59;99015.35;272041;1267;22266;-84
2024/04/05 20:50:23;;;;;;;19.90;11.20;;;;;;;10.51;85.06;99013.98;272715;1267;22496;-84
2024/04/05 20:56:29;;;;;;;20.10;10.50;;;;;;;10.43;85.93;99019.12;273768;1266;22263;-83
2024/04/05 21:02:59;;;;;;;;;;;;;;;;;;;;;
2024/04/05 21:10:13;;;;;;;23.80;12.00;;;;;;;10.31;87.00;99010.38;273951;1268;22288;-84
2024/04/05 21:16:30;;;;;;;27.00;13.00;;;;;;;10.29;87.51;99016.68;273026;1266;22408;-84
2024/04/05 21:22:31;;;;;;;20.90;11.20;;;;;;;10.33;88.49;99026.89;272628;1266;22614;-83
2024/04/05 21:28:38;;;;;;;33.90;16.30;;;;;;;10.40;88.82;99027.52;271977;1256;22576;-85
2024/04/05 21:35:27;;;;;;;33.10;16.90;;;;;;;10.40;88.86;99026.04;272822;1268;22264;-83
2024/04/05 21:41:39;;;;;;;34.10;18.20;;;;;;;10.41;88.94;99012.13;273418;1266;25394;-83
2024/04/05 21:48:33;;;;;;;31.60;16.50;;;;;;;10.36;89.10;98995.50;272919;1267;22244;-83
2024/04/05 21:54:57;;;;;;;29.80;15.60;;;;;;;10.31;89.30;98966.27;272692;1268;23400;-84
2024/04/05 22:00:58;;;;;;;20.40;8.60;;;;;;;10.32;89.99;98949.02;272250;1253;22495;-82
2024/04/05 22:07:31;;;;;;;27.20;11.90;;;;;;;10.53;90.42;98944.16;274106;1267;22270;-83
2024/04/05 22:13:36;;;;;;;19.20;10.40;;;;;;;10.69;90.50;98951.91;273941;1275;22275;-83
2024/04/05 22:20:02;;;;;;;24.30;11.60;;;;;;;10.76;90.52;98947.38;273891;1267;22390;-83
2024/04/05 22:26:09;;;;;;;26.60;10.90;;;;;;;10.83;90.82;98942.90;272984;1267;22265;-84
2024/04/05 22:33:10;;;;;;;19.90;9.60;;;;;;;10.88;90.98;98945.20;272390;1268;22281;-84
2024/04/05 22:39:19;;;;;;;17.90;8.30;;;;;;;10.95;91.24;98947.39;272874;1267;22658;-83
2024/04/05 22:45:45;;;;;;;19.30;9.50;;;;;;;11.03;91.38;98951.74;271536;1267;22669;-83
2024/04/05 22:51:48;;;;;;;16.60;9.00;;;;;;;11.11;91.85;98951.59;271824;1266;22615;-83
2024/04/05 22:57:57;;;;;;;19.00;9.00;;;;;;;11.15;91.90;98956.08;271066;1267;23398;-83
2024/04/05 23:04:03;;;;;;;15.20;7.20;;;;;;;11.19;92.09;98953.53;272126;1267;22410;-84
2024/04/05 23:10:05;;;;;;;11.30;6.00;;;;;;;11.26;91.79;98934.39;273982;1267;22322;-84
2024/04/05 23:16:28;;;;;;;7.30;3.50;;;;;;;11.47;91.93;98916.70;273051;1268;22591;-84
2024/04/05 23:23:11;;;;;;;11.00;3.70;;;;;;;11.80;91.94;98898.33;273552;1267;23424;-84
2024/04/05 23:29:55;;;;;;;7.80;2.80;;;;;;;12.16;91.73;98896.29;273668;1268;22416;-85
2024/04/05 23:36:20;;;;;;;6.70;2.00;;;;;;;12.44;91.35;98891.89;273608;1268;22357;-83
2024/04/05 23:42:37;;;;;;;8.20;3.20;;;;;;;12.61;91.15;98877.23;273556;1269;22257;-84
2024/04/05 23:49:21;;;;;;;4.40;2.10;;;;;;;12.79;91.01;98862.19;273281;1268;22555;-80
2024/04/05 23:56:03;;;;;;;4.30;2.70;;;;;;;12.92;90.83;98855.98;273424;1267;22405;-84
